sensor_id;sensor_type;location;lat;lon;timestamp;P1;durP1;ratioP1;P2;durP2;ratioP2
61702;SDS011;47622;47.726;3.298;2024-03-06T00:01:01;3.70;;;1.50;;
61702;SDS011;47622;47.726;3.298;2024-03-06T00:03:27;2.65;;;1.38;;
61702;SDS011;47622;47.726;3.298;2024-03-06T00:05:52;1.48;;;1.10;;
61702;SDS011;47622;47.726;3.298;2024-03-06T00:08:18;3.90;;;1.33;;
61702;SDS011;47622;47.726;3.298;2024-03-06T00:10:44;3.67;;;1.58;;
61702;SDS011;47622;47.726;3.298;2024-03-06T00:13:10;2.22;;;1.15;;
61702;SDS011;47622;47.726;3.298;2024-03-06T00:15:35;4.57;;;1.40;;
61702;SDS011;47622;47.726;3.298;2024-03-06T00:18:01;2.50;;;1.20;;
61702;SDS011;47622;47.726;3.298;2024-03-06T00:20:28;3.22;;;1.13;;
61702;SDS011;47622;47.726;3.298;2024-03-06T00:22:54;3.65;;;2.00;;
61702;SDS011;47622;47.726;3.298;2024-03-06T00:25:19;4.57;;;1.30;;
61702;SDS011;47622;47.726;3.298;2024-03-06T00:27:45;2.80;;;1.20;;
61702;SDS011;47622;47.726;3.298;2024-03-06T00:30:10;4.00;;;1.40;;
61702;SDS011;47622;47.726;3.298;2024-03-06T00:32:36;2.03;;;1.38;;
61702;SDS011;47622;47.726;3.298;2024-03-06T00:35:01;1.48;;;1.23;;
61702;SDS011;47622;47.726;3.298;2024-03-06T00:37:28;4.32;;;1.40;;
61702;SDS011;47622;47.726;3.298;2024-03-06T00:39:54;3.53;;;1.20;;
61702;SDS011;47622;47.726;3.298;2024-03-06T00:42:19;3.00;;;1.20;;
61702;SDS011;47622;47.726;3.298;2024-03-06T00:44:45;6.30;;;3.50;;
61702;SDS011;47622;47.726;3.298;2024-03-06T00:47:12;4.70;;;1.40;;
61702;SDS011;47622;47.726;3.298;2024-03-06T00:49:38;5.22;;;1.50;;
61702;SDS011;47622;47.726;3.298;2024-03-06T00:52:04;2.85;;;1.20;;
61702;SDS011;47622;47.726;3.298;2024-03-06T00:54:30;1.80;;;1.25;;
61702;SDS011;47622;47.726;3.298;2024-03-06T00:56:56;3.67;;;1.38;;
61702;SDS011;47622;47.726;3.298;2024-03-06T00:59:22;1.80;;;1.65;;
61702;SDS011;47622;47.726;3.298;2024-03-06T01:01:48;2.38;;;1.45;;
61702;SDS011;47622;47.726;3.298;2024-03-06T01:04:13;3.28;;;1.48;;
61702;SDS011;47622;47.726;3.298;2024-03-06T01:06:39;4.18;;;1.55;;
61702;SDS011;47622;47.726;3.298;2024-03-06T01:09:05;1.58;;;1.30;;
61702;SDS011;47622;47.726;3.298;2024-03-06T01:11:30;3.90;;;1.50;;
61702;SDS011;47622;47.726;3.298;2024-03-06T01:13:56;1.92;;;1.60;;
61702;SDS011;47622;47.726;3.298;2024-03-06T01:16:22;3.45;;;1.52;;
61702;SDS011;47622;47.726;3.298;2024-03-06T01:18:47;2.03;;;1.83;;
61702;SDS011;47622;47.726;3.298;2024-03-06T01:21:13;4.43;;;1.60;;
61702;SDS011;47622;47.726;3.298;2024-03-06T01:23:38;4.15;;;1.77;;
61702;SDS011;47622;47.726;3.298;2024-03-06T01:26:04;7.65;;;1.60;;
61702;SDS011;47622;47.726;3.298;2024-03-06T01:28:29;3.85;;;1.65;;
61702;SDS011;47622;47.726;3.298;2024-03-06T01:30:55;1.63;;;1.48;;
61702;SDS011;47622;47.726;3.298;2024-03-06T01:33:21;3.72;;;1.50;;
61702;SDS011;47622;47.726;3.298;2024-03-06T01:35:47;2.85;;;1.80;;
61702;SDS011;47622;47.726;3.298;2024-03-06T01:38:12;3.03;;;1.80;;
61702;SDS011;47622;47.726;3.298;2024-03-06T01:40:42;2.47;;;1.88;;
61702;SDS011;47622;47.726;3.298;2024-03-06T01:43:16;3.72;;;1.52;;
61702;SDS011;47622;47.726;3.298;2024-03-06T01:45:47;5.00;;;2.08;;
61702;SDS011;47622;47.726;3.298;2024-03-06T01:48:13;2.40;;;1.60;;
61702;SDS011;47622;47.726;3.298;2024-03-06T01:50:40;3.60;;;1.60;;
61702;SDS011;47622;47.726;3.298;2024-03-06T01:53:06;2.85;;;1.77;;
61702;SDS011;47622;47.726;3.298;2024-03-06T01:55:33;1.95;;;1.75;;
61702;SDS011;47622;47.726;3.298;2024-03-06T01:57:58;2.80;;;1.55;;
61702;SDS011;47622;47.726;3.298;2024-03-06T02:00:25;3.72;;;1.63;;
61702;SDS011;47622;47.726;3.298;2024-03-06T02:02:51;7.15;;;2.03;;
61702;SDS011;47622;47.726;3.298;2024-03-06T02:05:16;3.72;;;1.58;;
61702;SDS011;47622;47.726;3.298;2024-03-06T02:07:43;5.82;;;2.10;;
61702;SDS011;47622;47.726;3.298;2024-03-06T02:10:10;4.55;;;1.77;;
61702;SDS011;47622;47.726;3.298;2024-03-06T02:12:37;3.30;;;2.13;;
61702;SDS011;47622;47.726;3.298;2024-03-06T02:15:03;4.82;;;1.80;;
61702;SDS011;47622;47.726;3.298;2024-03-06T02:17:29;3.55;;;1.70;;
61702;SDS011;47622;47.726;3.298;2024-03-06T02:19:55;8.45;;;2.28;;
61702;SDS011;47622;47.726;3.298;2024-03-06T02:22:23;5.85;;;1.92;;
61702;SDS011;47622;47.726;3.298;2024-03-06T02:24:49;5.07;;;1.90;;
61702;SDS011;47622;47.726;3.298;2024-03-06T02:27:15;4.10;;;1.95;;
61702;SDS011;47622;47.726;3.298;2024-03-06T02:29:41;3.47;;;1.70;;
61702;SDS011;47622;47.726;3.298;2024-03-06T02:32:08;4.85;;;1.80;;
61702;SDS011;47622;47.726;3.298;2024-03-06T02:34:34;3.97;;;2.03;;
61702;SDS011;47622;47.726;3.298;2024-03-06T02:37:00;1.73;;;1.42;;
61702;SDS011;47622;47.726;3.298;2024-03-06T02:39:25;5.88;;;1.90;;
61702;SDS011;47622;47.726;3.298;2024-03-06T02:41:51;2.60;;;1.67;;
61702;SDS011;47622;47.726;3.298;2024-03-06T02:44:16;3.55;;;1.80;;
61702;SDS011;47622;47.726;3.298;2024-03-06T02:46:46;4.82;;;1.85;;
61702;SDS011;47622;47.726;3.298;2024-03-06T02:49:17;4.05;;;2.10;;
61702;SDS011;47622;47.726;3.298;2024-03-06T02:51:44;9.00;;;3.05;;
61702;SDS011;47622;47.726;3.298;2024-03-06T02:54:10;2.88;;;2.00;;
61702;SDS011;47622;47.726;3.298;2024-03-06T02:56:35;5.00;;;2.00;;
61702;SDS011;47622;47.726;3.298;2024-03-06T02:59:01;8.13;;;1.90;;
61702;SDS011;47622;47.726;3.298;2024-03-06T03:01:28;7.97;;;2.40;;
61702;SDS011;47622;47.726;3.298;2024-03-06T03:03:55;2.83;;;1.83;;
61702;SDS011;47622;47.726;3.298;2024-03-06T03:06:21;5.97;;;1.80;;
61702;SDS011;47622;47.726;3.298;2024-03-06T03:08:49;6.53;;;2.00;;
61702;SDS011;47622;47.726;3.298;2024-03-06T03:11:15;3.15;;;2.00;;
61702;SDS011;47622;47.726;3.298;2024-03-06T03:13:41;5.45;;;1.83;;
61702;SDS011;47622;47.726;3.298;2024-03-06T03:16:15;4.30;;;2.42;;
61702;SDS011;47622;47.726;3.298;2024-03-06T03:18:45;5.55;;;1.77;;
61702;SDS011;47622;47.726;3.298;2024-03-06T03:21:11;3.03;;;1.77;;
61702;SDS011;47622;47.726;3.298;2024-03-06T03:23:38;9.43;;;1.98;;
61702;SDS011;47622;47.726;3.298;2024-03-06T03:26:04;4.82;;;2.00;;
61702;SDS011;47622;47.726;3.298;2024-03-06T03:28:30;7.38;;;2.00;;
61702;SDS011;47622;47.726;3.298;2024-03-06T03:30:58;3.85;;;1.60;;
61702;SDS011;47622;47.726;3.298;2024-03-06T03:33:24;2.35;;;1.60;;
61702;SDS011;47622;47.726;3.298;2024-03-06T03:35:50;4.57;;;1.77;;
61702;SDS011;47622;47.726;3.298;2024-03-06T03:38:15;5.18;;;1.85;;
61702;SDS011;47622;47.726;3.298;2024-03-06T03:40:42;5.78;;;1.85;;
61702;SDS011;47622;47.726;3.298;2024-03-06T03:43:08;2.78;;;1.75;;
61702;SDS011;47622;47.726;3.298;2024-03-06T03:45:34;6.57;;;1.95;;
61702;SDS011;47622;47.726;3.298;2024-03-06T03:48:04;4.03;;;1.98;;
61702;SDS011;47622;47.726;3.298;2024-03-06T03:50:30;5.05;;;2.40;;
61702;SDS011;47622;47.726;3.298;2024-03-06T03:52:57;5.20;;;1.95;;
61702;SDS011;47622;47.726;3.298;2024-03-06T03:55:25;4.63;;;2.40;;
61702;SDS011;47622;47.726;3.298;2024-03-06T03:57:51;3.15;;;2.20;;
61702;SDS011;47622;47.726;3.298;2024-03-06T04:00:17;5.78;;;2.25;;
61702;SDS011;47622;47.726;3.298;2024-03-06T04:02:43;7.88;;;2.53;;
61702;SDS011;47622;47.726;3.298;2024-03-06T04:05:09;3.83;;;2.05;;
61702;SDS011;47622;47.726;3.298;2024-03-06T04:07:36;6.15;;;2.15;;
61702;SDS011;47622;47.726;3.298;2024-03-06T04:10:02;7.68;;;2.50;;
61702;SDS011;47622;47.726;3.298;2024-03-06T04:12:29;6.03;;;3.13;;
61702;SDS011;47622;47.726;3.298;2024-03-06T04:14:54;4.35;;;2.90;;
61702;SDS011;47622;47.726;3.298;2024-03-06T04:17:20;8.18;;;3.20;;
61702;SDS011;47622;47.726;3.298;2024-03-06T04:19:45;7.75;;;2.90;;
61702;SDS011;47622;47.726;3.298;2024-03-06T04:22:13;6.32;;;3.10;;
61702;SDS011;47622;47.726;3.298;2024-03-06T04:24:43;7.55;;;3.25;;
61702;SDS011;47622;47.726;3.298;2024-03-06T04:27:09;9.68;;;3.67;;
61702;SDS011;47622;47.726;3.298;2024-03-06T04:29:35;6.30;;;3.38;;
61702;SDS011;47622;47.726;3.298;2024-03-06T04:32:01;8.05;;;3.75;;
61702;SDS011;47622;47.726;3.298;2024-03-06T04:34:26;8.32;;;3.15;;
61702;SDS011;47622;47.726;3.298;2024-03-06T04:36:52;7.38;;;3.40;;
61702;SDS011;47622;47.726;3.298;2024-03-06T04:39:18;7.00;;;3.78;;
61702;SDS011;47622;47.726;3.298;2024-03-06T04:41:43;7.53;;;4.10;;
61702;SDS011;47622;47.726;3.298;2024-03-06T04:44:09;8.30;;;4.28;;
61702;SDS011;47622;47.726;3.298;2024-03-06T04:46:34;7.35;;;3.05;;
61702;SDS011;47622;47.726;3.298;2024-03-06T04:49:00;5.05;;;2.67;;
61702;SDS011;47622;47.726;3.298;2024-03-06T04:51:27;6.32;;;3.10;;
61702;SDS011;47622;47.726;3.298;2024-03-06T04:53:52;7.60;;;3.10;;
61702;SDS011;47622;47.726;3.298;2024-03-06T04:56:18;6.70;;;3.20;;
61702;SDS011;47622;47.726;3.298;2024-03-06T04:58:45;5.80;;;2.95;;
61702;SDS011;47622;47.726;3.298;2024-03-06T05:01:11;5.57;;;2.78;;
61702;SDS011;47622;47.726;3.298;2024-03-06T05:03:39;3.60;;;2.53;;
61702;SDS011;47622;47.726;3.298;2024-03-06T05:06:05;5.38;;;2.65;;
61702;SDS011;47622;47.726;3.298;2024-03-06T05:08:31;5.00;;;2.80;;
61702;SDS011;47622;47.726;3.298;2024-03-06T05:10:59;6.15;;;2.63;;
61702;SDS011;47622;47.726;3.298;2024-03-06T05:13:25;6.25;;;2.92;;
61702;SDS011;47622;47.726;3.298;2024-03-06T05:15:51;4.53;;;2.78;;
61702;SDS011;47622;47.726;3.298;2024-03-06T05:18:17;6.85;;;2.70;;
61702;SDS011;47622;47.726;3.298;2024-03-06T05:20:42;5.00;;;2.67;;
61702;SDS011;47622;47.726;3.298;2024-03-06T05:23:08;8.25;;;2.80;;
61702;SDS011;47622;47.726;3.298;2024-03-06T05:25:34;5.22;;;2.95;;
61702;SDS011;47622;47.726;3.298;2024-03-06T05:27:59;5.05;;;2.75;;
61702;SDS011;47622;47.726;3.298;2024-03-06T05:30:25;5.13;;;2.97;;
61702;SDS011;47622;47.726;3.298;2024-03-06T05:32:50;6.30;;;2.88;;
61702;SDS011;47622;47.726;3.298;2024-03-06T05:35:17;4.38;;;3.00;;
61702;SDS011;47622;47.726;3.298;2024-03-06T05:37:43;5.22;;;3.08;;
61702;SDS011;47622;47.726;3.298;2024-03-06T05:40:08;6.38;;;3.08;;
61702;SDS011;47622;47.726;3.298;2024-03-06T05:42:35;8.00;;;2.92;;
61702;SDS011;47622;47.726;3.298;2024-03-06T05:45:01;5.18;;;3.15;;
61702;SDS011;47622;47.726;3.298;2024-03-06T05:47:31;6.25;;;3.05;;
61702;SDS011;47622;47.726;3.298;2024-03-06T05:49:57;6.03;;;3.20;;
61702;SDS011;47622;47.726;3.298;2024-03-06T05:52:23;5.78;;;3.08;;
61702;SDS011;47622;47.726;3.298;2024-03-06T05:54:49;6.93;;;3.58;;
61702;SDS011;47622;47.726;3.298;2024-03-06T05:57:15;11.32;;;3.92;;
61702;SDS011;47622;47.726;3.298;2024-03-06T05:59:41;9.05;;;4.10;;
61702;SDS011;47622;47.726;3.298;2024-03-06T06:02:07;5.03;;;3.63;;
61702;SDS011;47622;47.726;3.298;2024-03-06T06:04:32;7.47;;;3.53;;
61702;SDS011;47622;47.726;3.298;2024-03-06T06:06:58;8.05;;;3.70;;
61702;SDS011;47622;47.726;3.298;2024-03-06T06:09:24;9.68;;;4.22;;
61702;SDS011;47622;47.726;3.298;2024-03-06T06:11:50;10.07;;;4.10;;
61702;SDS011;47622;47.726;3.298;2024-03-06T06:14:16;7.45;;;3.47;;
61702;SDS011;47622;47.726;3.298;2024-03-06T06:16:42;9.55;;;3.13;;
61702;SDS011;47622;47.726;3.298;2024-03-06T06:19:07;5.70;;;3.15;;
61702;SDS011;47622;47.726;3.298;2024-03-06T06:21:33;10.57;;;3.92;;
61702;SDS011;47622;47.726;3.298;2024-03-06T06:24:01;4.97;;;3.08;;
61702;SDS011;47622;47.726;3.298;2024-03-06T06:26:28;6.45;;;3.10;;
61702;SDS011;47622;47.726;3.298;2024-03-06T06:28:56;7.15;;;3.10;;
61702;SDS011;47622;47.726;3.298;2024-03-06T06:31:22;5.95;;;3.33;;
61702;SDS011;47622;47.726;3.298;2024-03-06T06:33:50;8.15;;;3.20;;
61702;SDS011;47622;47.726;3.298;2024-03-06T06:36:16;4.50;;;3.20;;
61702;SDS011;47622;47.726;3.298;2024-03-06T06:38:43;8.93;;;3.28;;
61702;SDS011;47622;47.726;3.298;2024-03-06T06:41:09;8.52;;;3.30;;
61702;SDS011;47622;47.726;3.298;2024-03-06T06:43:37;6.25;;;3.33;;
61702;SDS011;47622;47.726;3.298;2024-03-06T06:46:02;7.80;;;3.60;;
61702;SDS011;47622;47.726;3.298;2024-03-06T06:48:30;6.60;;;3.25;;
61702;SDS011;47622;47.726;3.298;2024-03-06T06:50:59;6.53;;;3.97;;
61702;SDS011;47622;47.726;3.298;2024-03-06T06:53:28;6.75;;;4.07;;
61702;SDS011;47622;47.726;3.298;2024-03-06T06:55:55;10.48;;;4.40;;
61702;SDS011;47622;47.726;3.298;2024-03-06T06:58:20;8.65;;;4.18;;
61702;SDS011;47622;47.726;3.298;2024-03-06T07:00:46;7.88;;;3.90;;
61702;SDS011;47622;47.726;3.298;2024-03-06T07:03:11;8.02;;;3.90;;
61702;SDS011;47622;47.726;3.298;2024-03-06T07:05:37;6.53;;;3.72;;
61702;SDS011;47622;47.726;3.298;2024-03-06T07:08:04;10.35;;;4.30;;
61702;SDS011;47622;47.726;3.298;2024-03-06T07:10:30;7.35;;;3.95;;
61702;SDS011;47622;47.726;3.298;2024-03-06T07:12:55;5.55;;;3.83;;
61702;SDS011;47622;47.726;3.298;2024-03-06T07:15:21;8.00;;;4.45;;
61702;SDS011;47622;47.726;3.298;2024-03-06T07:17:47;8.45;;;4.00;;
61702;SDS011;47622;47.726;3.298;2024-03-06T07:20:13;6.25;;;3.72;;
61702;SDS011;47622;47.726;3.298;2024-03-06T07:22:39;7.55;;;4.03;;
61702;SDS011;47622;47.726;3.298;2024-03-06T07:25:05;10.10;;;4.28;;
61702;SDS011;47622;47.726;3.298;2024-03-06T07:27:31;7.05;;;4.20;;
61702;SDS011;47622;47.726;3.298;2024-03-06T07:29:59;7.50;;;3.58;;
61702;SDS011;47622;47.726;3.298;2024-03-06T07:32:25;7.55;;;4.10;;
61702;SDS011;47622;47.726;3.298;2024-03-06T07:34:50;7.15;;;3.80;;
61702;SDS011;47622;47.726;3.298;2024-03-06T07:37:16;13.00;;;4.65;;
61702;SDS011;47622;47.726;3.298;2024-03-06T07:39:41;5.57;;;3.38;;
61702;SDS011;47622;47.726;3.298;2024-03-06T07:42:07;8.45;;;4.47;;
61702;SDS011;47622;47.726;3.298;2024-03-06T07:44:32;7.72;;;4.13;;
61702;SDS011;47622;47.726;3.298;2024-03-06T07:47:00;9.77;;;4.07;;
61702;SDS011;47622;47.726;3.298;2024-03-06T07:49:25;10.57;;;4.20;;
61702;SDS011;47622;47.726;3.298;2024-03-06T07:51:51;12.98;;;4.25;;
61702;SDS011;47622;47.726;3.298;2024-03-06T07:54:17;10.35;;;4.30;;
61702;SDS011;47622;47.726;3.298;2024-03-06T07:56:42;9.73;;;4.70;;
61702;SDS011;47622;47.726;3.298;2024-03-06T07:59:08;7.53;;;4.20;;
61702;SDS011;47622;47.726;3.298;2024-03-06T08:01:33;11.63;;;5.10;;
61702;SDS011;47622;47.726;3.298;2024-03-06T08:04:00;10.63;;;4.90;;
61702;SDS011;47622;47.726;3.298;2024-03-06T08:06:25;15.32;;;5.22;;
61702;SDS011;47622;47.726;3.298;2024-03-06T08:08:51;8.68;;;4.97;;
61702;SDS011;47622;47.726;3.298;2024-03-06T08:11:17;10.30;;;4.78;;
61702;SDS011;47622;47.726;3.298;2024-03-06T08:13:43;10.73;;;4.40;;
61702;SDS011;47622;47.726;3.298;2024-03-06T08:16:08;9.48;;;4.35;;
61702;SDS011;47622;47.726;3.298;2024-03-06T08:18:34;8.52;;;4.35;;
61702;SDS011;47622;47.726;3.298;2024-03-06T08:21:01;9.48;;;4.40;;
61702;SDS011;47622;47.726;3.298;2024-03-06T08:23:28;10.57;;;4.95;;
61702;SDS011;47622;47.726;3.298;2024-03-06T08:25:54;6.05;;;4.00;;
61702;SDS011;47622;47.726;3.298;2024-03-06T08:28:20;8.30;;;4.65;;
61702;SDS011;47622;47.726;3.298;2024-03-06T08:30:46;11.40;;;4.65;;
61702;SDS011;47622;47.726;3.298;2024-03-06T08:33:11;8.93;;;4.55;;
61702;SDS011;47622;47.726;3.298;2024-03-06T08:35:37;10.65;;;4.72;;
61702;SDS011;47622;47.726;3.298;2024-03-06T08:38:03;9.48;;;5.03;;
61702;SDS011;47622;47.726;3.298;2024-03-06T08:40:29;11.27;;;4.63;;
61702;SDS011;47622;47.726;3.298;2024-03-06T08:42:54;12.48;;;5.55;;
61702;SDS011;47622;47.726;3.298;2024-03-06T08:45:20;9.90;;;4.70;;
61702;SDS011;47622;47.726;3.298;2024-03-06T08:47:46;10.18;;;4.40;;
61702;SDS011;47622;47.726;3.298;2024-03-06T08:50:13;11.55;;;4.85;;
61702;SDS011;47622;47.726;3.298;2024-03-06T08:52:39;7.72;;;4.30;;
61702;SDS011;47622;47.726;3.298;2024-03-06T08:55:06;9.93;;;5.03;;
61702;SDS011;47622;47.726;3.298;2024-03-06T08:57:35;10.68;;;4.20;;
61702;SDS011;47622;47.726;3.298;2024-03-06T09:00:02;7.45;;;4.38;;
61702;SDS011;47622;47.726;3.298;2024-03-06T09:02:29;11.50;;;4.38;;
61702;SDS011;47622;47.726;3.298;2024-03-06T09:04:54;11.77;;;4.28;;
61702;SDS011;47622;47.726;3.298;2024-03-06T09:07:20;10.75;;;4.82;;
61702;SDS011;47622;47.726;3.298;2024-03-06T09:09:48;8.52;;;3.80;;
61702;SDS011;47622;47.726;3.298;2024-03-06T09:12:15;6.50;;;3.78;;
61702;SDS011;47622;47.726;3.298;2024-03-06T09:14:41;12.10;;;3.95;;
61702;SDS011;47622;47.726;3.298;2024-03-06T09:17:06;12.13;;;4.43;;
61702;SDS011;47622;47.726;3.298;2024-03-06T09:19:35;10.25;;;3.95;;
61702;SDS011;47622;47.726;3.298;2024-03-06T09:22:01;7.63;;;3.25;;
61702;SDS011;47622;47.726;3.298;2024-03-06T09:24:28;9.95;;;3.45;;
61702;SDS011;47622;47.726;3.298;2024-03-06T09:26:54;8.32;;;3.38;;
61702;SDS011;47622;47.726;3.298;2024-03-06T09:29:19;10.15;;;3.63;;
61702;SDS011;47622;47.726;3.298;2024-03-06T09:31:47;7.85;;;3.30;;
61702;SDS011;47622;47.726;3.298;2024-03-06T09:34:13;8.75;;;3.17;;
61702;SDS011;47622;47.726;3.298;2024-03-06T09:36:40;5.72;;;2.90;;
61702;SDS011;47622;47.726;3.298;2024-03-06T09:39:10;6.43;;;2.95;;
61702;SDS011;47622;47.726;3.298;2024-03-06T09:41:45;4.90;;;2.95;;
61702;SDS011;47622;47.726;3.298;2024-03-06T09:44:12;7.07;;;3.15;;
61702;SDS011;47622;47.726;3.298;2024-03-06T09:46:48;10.10;;;3.42;;
61702;SDS011;47622;47.726;3.298;2024-03-06T09:49:15;7.07;;;3.08;;
61702;SDS011;47622;47.726;3.298;2024-03-06T09:51:46;7.85;;;3.20;;
61702;SDS011;47622;47.726;3.298;2024-03-06T09:54:14;5.22;;;2.80;;
61702;SDS011;47622;47.726;3.298;2024-03-06T09:56:42;5.13;;;2.47;;
61702;SDS011;47622;47.726;3.298;2024-03-06T09:59:09;6.80;;;3.15;;
61702;SDS011;47622;47.726;3.298;2024-03-06T10:01:36;5.20;;;2.90;;
61702;SDS011;47622;47.726;3.298;2024-03-06T10:04:22;6.55;;;2.72;;
61702;SDS011;47622;47.726;3.298;2024-03-06T10:06:56;7.25;;;3.17;;
61702;SDS011;47622;47.726;3.298;2024-03-06T10:09:23;8.15;;;2.83;;
61702;SDS011;47622;47.726;3.298;2024-03-06T10:11:49;6.75;;;3.17;;
61702;SDS011;47622;47.726;3.298;2024-03-06T10:14:22;4.32;;;2.08;;
61702;SDS011;47622;47.726;3.298;2024-03-06T10:16:58;6.47;;;2.60;;
61702;SDS011;47622;47.726;3.298;2024-03-06T10:19:25;4.75;;;2.30;;
61702;SDS011;47622;47.726;3.298;2024-03-06T10:21:52;4.80;;;2.35;;
61702;SDS011;47622;47.726;3.298;2024-03-06T10:24:22;4.72;;;2.92;;
61702;SDS011;47622;47.726;3.298;2024-03-06T10:26:50;2.70;;;2.05;;
61702;SDS011;47622;47.726;3.298;2024-03-06T10:29:19;5.03;;;1.70;;
61702;SDS011;47622;47.726;3.298;2024-03-06T10:31:48;2.22;;;1.70;;
61702;SDS011;47622;47.726;3.298;2024-03-06T10:34:20;2.63;;;1.50;;
61702;SDS011;47622;47.726;3.298;2024-03-06T10:36:56;2.97;;;1.60;;
61702;SDS011;47622;47.726;3.298;2024-03-06T10:39:26;2.10;;;1.60;;
61702;SDS011;47622;47.726;3.298;2024-03-06T10:41:54;3.13;;;1.30;;
61702;SDS011;47622;47.726;3.298;2024-03-06T10:44:21;3.33;;;1.42;;
61702;SDS011;47622;47.726;3.298;2024-03-06T10:47:00;3.75;;;2.15;;
61702;SDS011;47622;47.726;3.298;2024-03-06T10:49:27;1.23;;;0.90;;
61702;SDS011;47622;47.726;3.298;2024-03-06T10:54:27;4.72;;;1.40;;
61702;SDS011;47622;47.726;3.298;2024-03-06T10:56:55;2.80;;;1.38;;
61702;SDS011;47622;47.726;3.298;2024-03-06T10:59:21;2.63;;;1.40;;
61702;SDS011;47622;47.726;3.298;2024-03-06T11:01:53;2.22;;;1.42;;
61702;SDS011;47622;47.726;3.298;2024-03-06T11:04:22;2.95;;;1.73;;
61702;SDS011;47622;47.726;3.298;2024-03-06T11:06:50;3.03;;;1.42;;
61702;SDS011;47622;47.726;3.298;2024-03-06T11:09:16;4.63;;;2.50;;
61702;SDS011;47622;47.726;3.298;2024-03-06T11:11:51;2.78;;;1.38;;
61702;SDS011;47622;47.726;3.298;2024-03-06T11:14:18;2.08;;;1.17;;
61702;SDS011;47622;47.726;3.298;2024-03-06T11:19:32;2.73;;;1.03;;
61702;SDS011;47622;47.726;3.298;2024-03-06T11:22:18;4.45;;;1.38;;
61702;SDS011;47622;47.726;3.298;2024-03-06T11:24:43;1.33;;;1.20;;
61702;SDS011;47622;47.726;3.298;2024-03-06T11:27:09;1.90;;;1.20;;
61702;SDS011;47622;47.726;3.298;2024-03-06T11:33:00;2.95;;;1.30;;
61702;SDS011;47622;47.726;3.298;2024-03-06T11:35:29;2.92;;;1.27;;
61702;SDS011;47622;47.726;3.298;2024-03-06T11:37:55;1.70;;;1.10;;
61702;SDS011;47622;47.726;3.298;2024-03-06T11:40:23;3.15;;;1.35;;
61702;SDS011;47622;47.726;3.298;2024-03-06T11:42:50;4.22;;;1.25;;
61702;SDS011;47622;47.726;3.298;2024-03-06T11:45:16;1.83;;;1.02;;
61702;SDS011;47622;47.726;3.298;2024-03-06T11:47:55;4.75;;;1.50;;
61702;SDS011;47622;47.726;3.298;2024-03-06T11:50:23;4.35;;;1.30;;
61702;SDS011;47622;47.726;3.298;2024-03-06T11:52:51;1.30;;;0.93;;
61702;SDS011;47622;47.726;3.298;2024-03-06T11:55:16;1.98;;;0.90;;
61702;SDS011;47622;47.726;3.298;2024-03-06T11:57:42;2.95;;;1.55;;
61702;SDS011;47622;47.726;3.298;2024-03-06T12:00:08;2.88;;;0.85;;
61702;SDS011;47622;47.726;3.298;2024-03-06T12:02:36;1.48;;;0.90;;
61702;SDS011;47622;47.726;3.298;2024-03-06T12:05:02;3.58;;;0.90;;
61702;SDS011;47622;47.726;3.298;2024-03-06T12:07:28;3.00;;;1.10;;
61702;SDS011;47622;47.726;3.298;2024-03-06T12:09:53;2.55;;;1.15;;
61702;SDS011;47622;47.726;3.298;2024-03-06T12:12:19;2.42;;;1.20;;
61702;SDS011;47622;47.726;3.298;2024-03-06T12:14:55;6.00;;;1.65;;
61702;SDS011;47622;47.726;3.298;2024-03-06T12:17:23;4.53;;;1.98;;
61702;SDS011;47622;47.726;3.298;2024-03-06T12:19:48;5.18;;;1.67;;
61702;SDS011;47622;47.726;3.298;2024-03-06T12:22:14;4.40;;;1.77;;
61702;SDS011;47622;47.726;3.298;2024-03-06T12:24:40;4.25;;;1.50;;
61702;SDS011;47622;47.726;3.298;2024-03-06T12:27:06;5.35;;;1.83;;
61702;SDS011;47622;47.726;3.298;2024-03-06T12:29:33;4.63;;;2.60;;
61702;SDS011;47622;47.726;3.298;2024-03-06T12:32:00;2.80;;;1.75;;
61702;SDS011;47622;47.726;3.298;2024-03-06T12:34:29;2.67;;;1.50;;
61702;SDS011;47622;47.726;3.298;2024-03-06T12:36:55;4.40;;;2.03;;
61702;SDS011;47622;47.726;3.298;2024-03-06T12:39:21;4.35;;;2.15;;
61702;SDS011;47622;47.726;3.298;2024-03-06T12:41:52;3.42;;;1.83;;
61702;SDS011;47622;47.726;3.298;2024-03-06T12:44:21;6.68;;;1.63;;
61702;SDS011;47622;47.726;3.298;2024-03-06T12:46:47;5.40;;;1.80;;
61702;SDS011;47622;47.726;3.298;2024-03-06T12:49:14;3.35;;;1.98;;
61702;SDS011;47622;47.726;3.298;2024-03-06T12:51:39;5.95;;;1.92;;
61702;SDS011;47622;47.726;3.298;2024-03-06T12:54:05;8.18;;;2.50;;
61702;SDS011;47622;47.726;3.298;2024-03-06T12:56:32;4.22;;;1.83;;
61702;SDS011;47622;47.726;3.298;2024-03-06T12:58:58;6.75;;;2.05;;
61702;SDS011;47622;47.726;3.298;2024-03-06T13:01:23;9.05;;;2.20;;
61702;SDS011;47622;47.726;3.298;2024-03-06T13:03:49;3.47;;;1.73;;
61702;SDS011;47622;47.726;3.298;2024-03-06T13:06:14;5.18;;;2.00;;
61702;SDS011;47622;47.726;3.298;2024-03-06T13:08:40;8.02;;;2.05;;
61702;SDS011;47622;47.726;3.298;2024-03-06T13:11:06;3.08;;;1.60;;
61702;SDS011;47622;47.726;3.298;2024-03-06T13:13:32;6.88;;;2.00;;
61702;SDS011;47622;47.726;3.298;2024-03-06T13:15:59;5.00;;;2.13;;
61702;SDS011;47622;47.726;3.298;2024-03-06T13:18:25;5.40;;;2.00;;
61702;SDS011;47622;47.726;3.298;2024-03-06T13:20:51;3.22;;;1.98;;
61702;SDS011;47622;47.726;3.298;2024-03-06T13:23:17;2.85;;;1.70;;
61702;SDS011;47622;47.726;3.298;2024-03-06T13:25:42;5.18;;;2.00;;
61702;SDS011;47622;47.726;3.298;2024-03-06T13:28:08;6.22;;;2.00;;
61702;SDS011;47622;47.726;3.298;2024-03-06T13:30:34;4.80;;;2.38;;
61702;SDS011;47622;47.726;3.298;2024-03-06T13:33:00;5.40;;;2.08;;
61702;SDS011;47622;47.726;3.298;2024-03-06T13:35:26;5.65;;;2.33;;
61702;SDS011;47622;47.726;3.298;2024-03-06T13:37:52;4.13;;;2.03;;
61702;SDS011;47622;47.726;3.298;2024-03-06T13:40:19;4.43;;;1.98;;
61702;SDS011;47622;47.726;3.298;2024-03-06T13:42:45;7.25;;;2.42;;
61702;SDS011;47622;47.726;3.298;2024-03-06T13:45:11;6.63;;;2.47;;
61702;SDS011;47622;47.726;3.298;2024-03-06T13:47:37;4.03;;;1.98;;
61702;SDS011;47622;47.726;3.298;2024-03-06T13:50:05;7.25;;;2.30;;
61702;SDS011;47622;47.726;3.298;2024-03-06T13:52:33;5.50;;;2.00;;
61702;SDS011;47622;47.726;3.298;2024-03-06T13:54:59;4.70;;;1.70;;
61702;SDS011;47622;47.726;3.298;2024-03-06T13:57:27;5.50;;;2.08;;
61702;SDS011;47622;47.726;3.298;2024-03-06T13:59:54;4.75;;;1.83;;
61702;SDS011;47622;47.726;3.298;2024-03-06T14:02:19;6.78;;;1.88;;
61702;SDS011;47622;47.726;3.298;2024-03-06T14:04:46;4.95;;;1.85;;
61702;SDS011;47622;47.726;3.298;2024-03-06T14:07:11;5.38;;;1.80;;
61702;SDS011;47622;47.726;3.298;2024-03-06T14:09:37;3.80;;;1.42;;
61702;SDS011;47622;47.726;3.298;2024-03-06T14:12:03;3.63;;;1.70;;
61702;SDS011;47622;47.726;3.298;2024-03-06T14:14:29;5.13;;;1.90;;
61702;SDS011;47622;47.726;3.298;2024-03-06T14:16:54;2.80;;;1.63;;
61702;SDS011;47622;47.726;3.298;2024-03-06T14:19:20;3.10;;;1.30;;
61702;SDS011;47622;47.726;3.298;2024-03-06T14:21:47;1.83;;;1.50;;
61702;SDS011;47622;47.726;3.298;2024-03-06T14:24:12;2.78;;;1.55;;
61702;SDS011;47622;47.726;3.298;2024-03-06T14:26:38;2.90;;;2.05;;
61702;SDS011;47622;47.726;3.298;2024-03-06T14:29:05;2.70;;;1.70;;
61702;SDS011;47622;47.726;3.298;2024-03-06T14:31:32;3.72;;;1.58;;
61702;SDS011;47622;47.726;3.298;2024-03-06T14:33:59;4.43;;;1.55;;
61702;SDS011;47622;47.726;3.298;2024-03-06T14:36:25;5.80;;;1.80;;
61702;SDS011;47622;47.726;3.298;2024-03-06T14:38:51;2.80;;;1.52;;
61702;SDS011;47622;47.726;3.298;2024-03-06T14:41:19;4.45;;;1.85;;
61702;SDS011;47622;47.726;3.298;2024-03-06T14:43:45;4.55;;;1.90;;
61702;SDS011;47622;47.726;3.298;2024-03-06T14:46:11;3.60;;;1.80;;
61702;SDS011;47622;47.726;3.298;2024-03-06T14:48:37;2.10;;;1.60;;
61702;SDS011;47622;47.726;3.298;2024-03-06T14:51:04;2.97;;;1.80;;